sensor_id;sensor_type;location;lat;lon;timestamp;temperature;humidity
35593;DHT22;64447;52.140;5.602;2023-02-15T00:00:03;4.70;91.20
35593;DHT22;64447;52.140;5.602;2023-02-15T00:02:28;4.80;91.20
35593;DHT22;64447;52.140;5.602;2023-02-15T00:04:54;4.70;91.20
35593;DHT22;64447;52.140;5.602;2023-02-15T00:07:21;4.70;91.10
35593;DHT22;64447;52.140;5.602;2023-02-15T00:09:47;5.50;91.40
35593;DHT22;64447;52.140;5.602;2023-02-15T00:12:14;4.70;91.20
35593;DHT22;64447;52.140;5.602;2023-02-15T00:14:39;5.80;91.40
35593;DHT22;64447;52.140;5.602;2023-02-15T00:17:05;4.70;91.00
35593;DHT22;64447;52.140;5.602;2023-02-15T00:19:31;4.70;91.00
35593;DHT22;64447;52.140;5.602;2023-02-15T00:21:57;4.70;91.10
35593;DHT22;64447;52.140;5.602;2023-02-15T00:24:22;4.70;91.10
35593;DHT22;64447;52.140;5.602;2023-02-15T00:26:48;4.70;91.10
35593;DHT22;64447;52.140;5.602;2023-02-15T00:29:15;4.70;91.00
35593;DHT22;64447;52.140;5.602;2023-02-15T00:31:41;5.10;91.10
35593;DHT22;64447;52.140;5.602;2023-02-15T00:34:15;4.70;91.10
35593;DHT22;64447;52.140;5.602;2023-02-15T00:36:41;4.60;91.10
35593;DHT22;64447;52.140;5.602;2023-02-15T00:39:07;4.70;90.90
35593;DHT22;64447;52.140;5.602;2023-02-15T00:41:33;4.60;90.90
35593;DHT22;64447;52.140;5.602;2023-02-15T00:44:00;4.60;90.80
35593;DHT22;64447;52.140;5.602;2023-02-15T00:46:25;4.60;90.80
35593;DHT22;64447;52.140;5.602;2023-02-15T00:48:51;4.50;90.90
35593;DHT22;64447;52.140;5.602;2023-02-15T00:51:17;4.50;90.80
35593;DHT22;64447;52.140;5.602;2023-02-15T00:53:43;4.50;90.80
35593;DHT22;64447;52.140;5.602;2023-02-15T00:58:35;4.40;92.40
35593;DHT22;64447;52.140;5.602;2023-02-15T01:01:06;5.40;92.30
35593;DHT22;64447;52.140;5.602;2023-02-15T01:03:33;4.60;94.00
35593;DHT22;64447;52.140;5.602;2023-02-15T01:05:59;5.00;95.10
35593;DHT22;64447;52.140;5.602;2023-02-15T01:08:25;3.80;96.30
35593;DHT22;64447;52.140;5.602;2023-02-15T01:10:51;3.80;91.50
35593;DHT22;64447;52.140;5.602;2023-02-15T01:13:16;4.50;96.20
35593;DHT22;64447;52.140;5.602;2023-02-15T01:15:43;4.30;97.50
35593;DHT22;64447;52.140;5.602;2023-02-15T01:18:10;5.40;97.00
35593;DHT22;64447;52.140;5.602;2023-02-15T01:20:37;3.90;97.20
35593;DHT22;64447;52.140;5.602;2023-02-15T01:23:05;4.10;91.80
35593;DHT22;64447;52.140;5.602;2023-02-15T01:25:32;4.80;98.50
35593;DHT22;64447;52.140;5.602;2023-02-15T01:27:58;4.20;97.20
35593;DHT22;64447;52.140;5.602;2023-02-15T01:30:23;3.90;91.40
35593;DHT22;64447;52.140;5.602;2023-02-15T01:32:49;3.90;91.60
35593;DHT22;64447;52.140;5.602;2023-02-15T01:35:14;4.90;91.70
35593;DHT22;64447;52.140;5.602;2023-02-15T01:37:40;3.90;91.60
35593;DHT22;64447;52.140;5.602;2023-02-15T01:40:08;4.90;91.80
35593;DHT22;64447;52.140;5.602;2023-02-15T01:42:36;3.90;91.60
35593;DHT22;64447;52.140;5.602;2023-02-15T01:50:44;3.90;91.40
35593;DHT22;64447;52.140;5.602;2023-02-15T01:56:06;3.90;91.60
35593;DHT22;64447;52.140;5.602;2023-02-15T01:58:34;3.90;91.40
35593;DHT22;64447;52.140;5.602;2023-02-15T02:01:01;3.90;91.40
35593;DHT22;64447;52.140;5.602;2023-02-15T02:06:23;3.90;91.40
35593;DHT22;64447;52.140;5.602;2023-02-15T02:08:49;3.80;91.30
35593;DHT22;64447;52.140;5.602;2023-02-15T02:11:15;3.80;91.30
35593;DHT22;64447;52.140;5.602;2023-02-15T02:13:43;3.80;91.40
35593;DHT22;64447;52.140;5.602;2023-02-15T02:16:20;3.80;91.40
35593;DHT22;64447;52.140;5.602;2023-02-15T02:22:19;3.70;91.20
35593;DHT22;64447;52.140;5.602;2023-02-15T02:27:45;3.70;91.30
35593;DHT22;64447;52.140;5.602;2023-02-15T02:30:42;3.70;91.40
35593;DHT22;64447;52.140;5.602;2023-02-15T02:44:16;4.20;91.70
35593;DHT22;64447;52.140;5.602;2023-02-15T02:46:59;3.50;91.50
35593;DHT22;64447;52.140;5.602;2023-02-15T02:52:02;3.50;91.60
35593;DHT22;64447;52.140;5.602;2023-02-15T02:54:28;3.40;91.50
35593;DHT22;64447;52.140;5.602;2023-02-15T02:56:56;3.40;91.50
35593;DHT22;64447;52.140;5.602;2023-02-15T02:59:32;3.40;91.90
35593;DHT22;64447;52.140;5.602;2023-02-15T03:02:16;3.40;91.40
35593;DHT22;64447;52.140;5.602;2023-02-15T03:04:46;3.40;91.30
35593;DHT22;64447;52.140;5.602;2023-02-15T03:07:17;3.30;91.80
35593;DHT22;64447;52.140;5.602;2023-02-15T03:09:50;3.30;91.90
35593;DHT22;64447;52.140;5.602;2023-02-15T03:12:17;3.30;91.40
35593;DHT22;64447;52.140;5.602;2023-02-15T03:14:48;3.30;91.50
35593;DHT22;64447;52.140;5.602;2023-02-15T03:17:14;3.30;91.50
35593;DHT22;64447;52.140;5.602;2023-02-15T03:19:45;3.20;91.50
35593;DHT22;64447;52.140;5.602;2023-02-15T03:22:35;3.20;91.60
35593;DHT22;64447;52.140;5.602;2023-02-15T03:25:09;3.20;91.60
35593;DHT22;64447;52.140;5.602;2023-02-15T03:27:38;3.20;91.60
35593;DHT22;64447;52.140;5.602;2023-02-15T03:30:06;3.20;91.70
35593;DHT22;64447;52.140;5.602;2023-02-15T03:32:34;3.20;91.70
35593;DHT22;64447;52.140;5.602;2023-02-15T03:35:02;3.20;91.70
35593;DHT22;64447;52.140;5.602;2023-02-15T03:40:26;3.20;91.70
35593;DHT22;64447;52.140;5.602;2023-02-15T03:43:38;3.20;91.60
35593;DHT22;64447;52.140;5.602;2023-02-15T03:49:13;3.10;91.90
35593;DHT22;64447;52.140;5.602;2023-02-15T03:51:42;3.00;91.90
35593;DHT22;64447;52.140;5.602;2023-02-15T03:54:22;3.00;92.00
35593;DHT22;64447;52.140;5.602;2023-02-15T04:00:04;2.90;91.80
35593;DHT22;64447;52.140;5.602;2023-02-15T04:02:55;2.90;91.90
35593;DHT22;64447;52.140;5.602;2023-02-15T04:05:25;2.90;91.90
35593;DHT22;64447;52.140;5.602;2023-02-15T04:07:51;2.90;91.90
35593;DHT22;64447;52.140;5.602;2023-02-15T04:10:16;2.90;92.00
35593;DHT22;64447;52.140;5.602;2023-02-15T04:13:01;2.90;92.00
35593;DHT22;64447;52.140;5.602;2023-02-15T04:15:26;2.90;92.10
35593;DHT22;64447;52.140;5.602;2023-02-15T04:18:10;2.90;92.00
35593;DHT22;64447;52.140;5.602;2023-02-15T04:20:36;2.90;92.00
35593;DHT22;64447;52.140;5.602;2023-02-15T04:23:20;2.90;92.00
35593;DHT22;64447;52.140;5.602;2023-02-15T04:26:04;2.90;92.10
35593;DHT22;64447;52.140;5.602;2023-02-15T04:28:30;3.10;92.30
35593;DHT22;64447;52.140;5.602;2023-02-15T04:30:56;2.80;92.20
35593;DHT22;64447;52.140;5.602;2023-02-15T04:33:22;2.80;92.30
35593;DHT22;64447;52.140;5.602;2023-02-15T04:35:47;2.80;92.30
35593;DHT22;64447;52.140;5.602;2023-02-15T04:38:13;2.80;92.30
35593;DHT22;64447;52.140;5.602;2023-02-15T04:40:38;2.80;92.20
35593;DHT22;64447;52.140;5.602;2023-02-15T04:43:04;2.80;92.20
35593;DHT22;64447;52.140;5.602;2023-02-15T04:45:29;2.80;92.30
35593;DHT22;64447;52.140;5.602;2023-02-15T04:47:55;3.30;92.40
35593;DHT22;64447;52.140;5.602;2023-02-15T04:50:21;2.80;92.30
35593;DHT22;64447;52.140;5.602;2023-02-15T04:52:46;2.70;92.10
35593;DHT22;64447;52.140;5.602;2023-02-15T04:55:12;2.70;92.20
35593;DHT22;64447;52.140;5.602;2023-02-15T04:57:39;2.80;92.40
35593;DHT22;64447;52.140;5.602;2023-02-15T05:00:05;2.70;92.40
35593;DHT22;64447;52.140;5.602;2023-02-15T05:02:31;2.70;92.30
35593;DHT22;64447;52.140;5.602;2023-02-15T05:04:57;2.70;92.20
35593;DHT22;64447;52.140;5.602;2023-02-15T05:07:22;2.70;92.30
35593;DHT22;64447;52.140;5.602;2023-02-15T05:09:48;2.70;92.30
35593;DHT22;64447;52.140;5.602;2023-02-15T05:12:13;2.80;92.30
35593;DHT22;64447;52.140;5.602;2023-02-15T05:14:39;2.70;92.20
35593;DHT22;64447;52.140;5.602;2023-02-15T05:17:04;2.70;92.50
35593;DHT22;64447;52.140;5.602;2023-02-15T05:19:30;2.70;92.20
35593;DHT22;64447;52.140;5.602;2023-02-15T05:21:56;2.70;92.30
35593;DHT22;64447;52.140;5.602;2023-02-15T05:24:22;2.60;92.30
35593;DHT22;64447;52.140;5.602;2023-02-15T05:27:06;2.60;92.40
35593;DHT22;64447;52.140;5.602;2023-02-15T05:29:56;2.60;92.40
35593;DHT22;64447;52.140;5.602;2023-02-15T05:32:21;2.60;92.40
35593;DHT22;64447;52.140;5.602;2023-02-15T05:34:47;2.60;92.30
35593;DHT22;64447;52.140;5.602;2023-02-15T05:37:12;2.60;92.30
35593;DHT22;64447;52.140;5.602;2023-02-15T05:39:38;2.50;92.30
35593;DHT22;64447;52.140;5.602;2023-02-15T05:42:04;2.50;92.20
35593;DHT22;64447;52.140;5.602;2023-02-15T05:44:29;2.50;92.20
35593;DHT22;64447;52.140;5.602;2023-02-15T05:46:55;2.50;92.40
35593;DHT22;64447;52.140;5.602;2023-02-15T05:49:20;2.50;92.40
35593;DHT22;64447;52.140;5.602;2023-02-15T05:51:46;2.50;92.40
35593;DHT22;64447;52.140;5.602;2023-02-15T05:54:11;2.40;92.50
35593;DHT22;64447;52.140;5.602;2023-02-15T05:56:37;2.50;92.40
35593;DHT22;64447;52.140;5.602;2023-02-15T05:59:03;2.40;92.50
35593;DHT22;64447;52.140;5.602;2023-02-15T06:01:28;2.40;92.50
35593;DHT22;64447;52.140;5.602;2023-02-15T06:03:54;2.40;92.60
35593;DHT22;64447;52.140;5.602;2023-02-15T06:06:21;2.40;92.50
35593;DHT22;64447;52.140;5.602;2023-02-15T06:08:47;2.40;92.50
35593;DHT22;64447;52.140;5.602;2023-02-15T06:11:12;2.40;92.40
35593;DHT22;64447;52.140;5.602;2023-02-15T06:13:38;2.40;92.40
35593;DHT22;64447;52.140;5.602;2023-02-15T06:16:04;2.40;92.40
35593;DHT22;64447;52.140;5.602;2023-02-15T06:18:29;2.40;92.40
35593;DHT22;64447;52.140;5.602;2023-02-15T06:20:55;2.40;92.40
35593;DHT22;64447;52.140;5.602;2023-02-15T06:23:20;3.20;92.60
35593;DHT22;64447;52.140;5.602;2023-02-15T06:25:46;2.30;92.50
35593;DHT22;64447;52.140;5.602;2023-02-15T06:28:13;2.30;92.60
35593;DHT22;64447;52.140;5.602;2023-02-15T06:30:39;2.30;92.60
35593;DHT22;64447;52.140;5.602;2023-02-15T06:33:04;2.30;92.50
35593;DHT22;64447;52.140;5.602;2023-02-15T06:35:30;2.30;92.40
35593;DHT22;64447;52.140;5.602;2023-02-15T06:37:55;2.30;92.50
35593;DHT22;64447;52.140;5.602;2023-02-15T06:40:21;2.30;92.50
35593;DHT22;64447;52.140;5.602;2023-02-15T06:42:47;2.30;92.40
35593;DHT22;64447;52.140;5.602;2023-02-15T07:31:50;2.30;92.50
35593;DHT22;64447;52.140;5.602;2023-02-15T07:34:16;2.30;92.90
35593;DHT22;64447;52.140;5.602;2023-02-15T07:36:42;2.30;93.00
35593;DHT22;64447;52.140;5.602;2023-02-15T07:39:09;2.40;93.10
35593;DHT22;64447;52.140;5.602;2023-02-15T07:41:35;2.40;93.10
35593;DHT22;64447;52.140;5.602;2023-02-15T07:44:00;2.40;93.10
35593;DHT22;64447;52.140;5.602;2023-02-15T07:46:26;2.50;93.10
35593;DHT22;64447;52.140;5.602;2023-02-15T07:48:52;2.50;93.10
35593;DHT22;64447;52.140;5.602;2023-02-15T07:51:17;2.60;93.10
35593;DHT22;64447;52.140;5.602;2023-02-15T07:53:43;2.70;93.00
35593;DHT22;64447;52.140;5.602;2023-02-15T07:56:13;2.70;93.40
35593;DHT22;64447;52.140;5.602;2023-02-15T07:58:39;2.80;93.70
35593;DHT22;64447;52.140;5.602;2023-02-15T08:01:18;2.90;93.80
35593;DHT22;64447;52.140;5.602;2023-02-15T08:03:44;3.00;93.80
35593;DHT22;64447;52.140;5.602;2023-02-15T08:06:10;3.10;93.70
35593;DHT22;64447;52.140;5.602;2023-02-15T08:08:38;3.10;93.70
35593;DHT22;64447;52.140;5.602;2023-02-15T08:11:23;3.10;93.60
35593;DHT22;64447;52.140;5.602;2023-02-15T08:14:17;3.20;93.80
35593;DHT22;64447;52.140;5.602;2023-02-15T08:19:17;3.30;94.20
35593;DHT22;64447;52.140;5.602;2023-02-15T08:21:46;3.40;94.60
35593;DHT22;64447;52.140;5.602;2023-02-15T08:24:13;3.40;94.80
35593;DHT22;64447;52.140;5.602;2023-02-15T08:26:39;3.40;95.70
35593;DHT22;64447;52.140;5.602;2023-02-15T08:29:06;3.50;96.00
35593;DHT22;64447;52.140;5.602;2023-02-15T08:31:33;3.50;96.20
35593;DHT22;64447;52.140;5.602;2023-02-15T08:33:59;3.60;96.30
35593;DHT22;64447;52.140;5.602;2023-02-15T08:36:27;3.60;96.60
35593;DHT22;64447;52.140;5.602;2023-02-15T08:38:54;3.50;97.00
35593;DHT22;64447;52.140;5.602;2023-02-15T08:41:22;3.60;97.40
35593;DHT22;64447;52.140;5.602;2023-02-15T08:43:55;3.50;97.60
35593;DHT22;64447;52.140;5.602;2023-02-15T08:46:23;4.30;97.90
35593;DHT22;64447;52.140;5.602;2023-02-15T08:48:49;3.90;97.70
35593;DHT22;64447;52.140;5.602;2023-02-15T08:51:17;3.80;99.90
35593;DHT22;64447;52.140;5.602;2023-02-15T08:53:46;4.20;98.50
35593;DHT22;64447;52.140;5.602;2023-02-15T08:56:14;4.00;99.90
35593;DHT22;64447;52.140;5.602;2023-02-15T08:58:40;4.30;97.60
35593;DHT22;64447;52.140;5.602;2023-02-15T09:01:10;4.10;99.90
35593;DHT22;64447;52.140;5.602;2023-02-15T09:03:36;4.50;99.90
35593;DHT22;64447;52.140;5.602;2023-02-15T09:08:28;4.70;96.80
35593;DHT22;64447;52.140;5.602;2023-02-15T09:11:03;4.70;97.10
35593;DHT22;64447;52.140;5.602;2023-02-15T09:13:29;4.70;96.80
35593;DHT22;64447;52.140;5.602;2023-02-15T09:16:02;4.60;97.20
35593;DHT22;64447;52.140;5.602;2023-02-15T09:18:30;4.70;97.20
35593;DHT22;64447;52.140;5.602;2023-02-15T09:20:56;4.80;97.20
35593;DHT22;64447;52.140;5.602;2023-02-15T09:23:22;4.80;97.10
35593;DHT22;64447;52.140;5.602;2023-02-15T09:25:47;4.80;96.90
35593;DHT22;64447;52.140;5.602;2023-02-15T09:28:13;4.80;97.00
35593;DHT22;64447;52.140;5.602;2023-02-15T09:30:38;4.90;96.90
35593;DHT22;64447;52.140;5.602;2023-02-15T09:33:04;4.90;96.70
35593;DHT22;64447;52.140;5.602;2023-02-15T09:35:30;4.90;97.00
35593;DHT22;64447;52.140;5.602;2023-02-15T09:37:55;5.10;96.80
35593;DHT22;64447;52.140;5.602;2023-02-15T09:40:21;5.10;96.80
35593;DHT22;64447;52.140;5.602;2023-02-15T09:43:03;5.10;96.50
35593;DHT22;64447;52.140;5.602;2023-02-15T09:48:45;6.30;96.50
35593;DHT22;64447;52.140;5.602;2023-02-15T09:56:38;5.40;95.70
35593;DHT22;64447;52.140;5.602;2023-02-15T09:59:30;5.50;96.00
35593;DHT22;64447;52.140;5.602;2023-02-15T10:02:18;5.70;95.70
35593;DHT22;64447;52.140;5.602;2023-02-15T10:10:15;6.00;95.00
35593;DHT22;64447;52.140;5.602;2023-02-15T10:15:27;6.00;95.10
35593;DHT22;64447;52.140;5.602;2023-02-15T10:19:00;6.10;95.00
35593;DHT22;64447;52.140;5.602;2023-02-15T10:26:47;6.10;95.00
35593;DHT22;64447;52.140;5.602;2023-02-15T10:29:34;6.20;94.90
35593;DHT22;64447;52.140;5.602;2023-02-15T10:32:23;6.30;94.90
35593;DHT22;64447;52.140;5.602;2023-02-15T10:35:10;6.40;94.80
35593;DHT22;64447;52.140;5.602;2023-02-15T10:37:54;6.50;94.60
35593;DHT22;64447;52.140;5.602;2023-02-15T10:40:35;6.50;94.50
35593;DHT22;64447;52.140;5.602;2023-02-15T10:46:32;6.70;94.50
35593;DHT22;64447;52.140;5.602;2023-02-15T10:49:17;6.70;94.20
35593;DHT22;64447;52.140;5.602;2023-02-15T11:00:03;7.00;93.80
35593;DHT22;64447;52.140;5.602;2023-02-15T11:06:06;7.20;93.60
35593;DHT22;64447;52.140;5.602;2023-02-15T11:08:48;7.30;93.70
35593;DHT22;64447;52.140;5.602;2023-02-15T11:11:24;7.40;95.20
35593;DHT22;64447;52.140;5.602;2023-02-15T11:13:56;7.30;93.60
35593;DHT22;64447;52.140;5.602;2023-02-15T11:18:59;7.50;93.10
35593;DHT22;64447;52.140;5.602;2023-02-15T11:21:30;7.50;93.10
35593;DHT22;64447;52.140;5.602;2023-02-15T11:23:59;7.60;93.10
35593;DHT22;64447;52.140;5.602;2023-02-15T11:26:49;7.70;92.80
35593;DHT22;64447;52.140;5.602;2023-02-15T11:32:19;7.80;93.00
35593;DHT22;64447;52.140;5.602;2023-02-15T11:40:29;8.00;92.60
35593;DHT22;64447;52.140;5.602;2023-02-15T11:45:42;8.20;92.60
35593;DHT22;64447;52.140;5.602;2023-02-15T11:48:12;8.30;92.50
35593;DHT22;64447;52.140;5.602;2023-02-15T11:50:38;8.50;92.30
35593;DHT22;64447;52.140;5.602;2023-02-15T11:53:09;9.40;92.60
35593;DHT22;64447;52.140;5.602;2023-02-15T11:55:36;8.90;92.20
35593;DHT22;64447;52.140;5.602;2023-02-15T12:00:50;8.60;92.00
35593;DHT22;64447;52.140;5.602;2023-02-15T12:03:22;8.80;91.90
35593;DHT22;64447;52.140;5.602;2023-02-15T12:05:56;8.90;91.60
35593;DHT22;64447;52.140;5.602;2023-02-15T12:08:24;8.90;91.50
35593;DHT22;64447;52.140;5.602;2023-02-15T12:11:19;8.90;91.40
35593;DHT22;64447;52.140;5.602;2023-02-15T12:14:00;8.90;91.20
35593;DHT22;64447;52.140;5.602;2023-02-15T12:16:27;9.00;91.40
35593;DHT22;64447;52.140;5.602;2023-02-15T12:18:59;9.00;91.10
35593;DHT22;64447;52.140;5.602;2023-02-15T12:21:39;9.20;91.30
35593;DHT22;64447;52.140;5.602;2023-02-15T12:24:34;9.20;91.20
35593;DHT22;64447;52.140;5.602;2023-02-15T12:27:20;9.00;91.30
35593;DHT22;64447;52.140;5.602;2023-02-15T12:30:01;9.20;91.30
35593;DHT22;64447;52.140;5.602;2023-02-15T12:32:33;9.30;91.00
35593;DHT22;64447;52.140;5.602;2023-02-15T12:35:07;9.40;90.70
35593;DHT22;64447;52.140;5.602;2023-02-15T12:37:34;9.40;90.40
35593;DHT22;64447;52.140;5.602;2023-02-15T12:40:18;9.40;90.50
35593;DHT22;64447;52.140;5.602;2023-02-15T12:42:44;9.50;90.60
35593;DHT22;64447;52.140;5.602;2023-02-15T12:48:32;9.60;90.20
35593;DHT22;64447;52.140;5.602;2023-02-15T12:51:08;9.70;90.30
35593;DHT22;64447;52.140;5.602;2023-02-15T12:53:35;9.60;90.40
35593;DHT22;64447;52.140;5.602;2023-02-15T12:56:03;9.70;90.20
35593;DHT22;64447;52.140;5.602;2023-02-15T12:58:34;9.70;90.00
35593;DHT22;64447;52.140;5.602;2023-02-15T13:04:51;10.00;89.30
35593;DHT22;64447;52.140;5.602;2023-02-15T13:07:18;9.90;89.40
35593;DHT22;64447;52.140;5.602;2023-02-15T13:09:44;9.80;89.50
35593;DHT22;64447;52.140;5.602;2023-02-15T13:12:27;9.80;89.80
35593;DHT22;64447;52.140;5.602;2023-02-15T13:14:56;9.90;90.10
35593;DHT22;64447;52.140;5.602;2023-02-15T13:20:44;9.90;89.90
35593;DHT22;64447;52.140;5.602;2023-02-15T13:23:25;9.90;89.80
35593;DHT22;64447;52.140;5.602;2023-02-15T13:25:54;10.00;89.50
35593;DHT22;64447;52.140;5.602;2023-02-15T13:28:24;9.90;89.30
35593;DHT22;64447;52.140;5.602;2023-02-15T13:30:52;10.00;89.10
35593;DHT22;64447;52.140;5.602;2023-02-15T13:33:35;10.00;88.80
35593;DHT22;64447;52.140;5.602;2023-02-15T13:36:34;10.10;88.10
35593;DHT22;64447;52.140;5.602;2023-02-15T13:44:39;10.20;88.90
35593;DHT22;64447;52.140;5.602;2023-02-15T13:47:27;10.30;88.00
35593;DHT22;64447;52.140;5.602;2023-02-15T13:55:21;10.40;88.10
35593;DHT22;64447;52.140;5.602;2023-02-15T13:58:10;10.30;88.40
35593;DHT22;64447;52.140;5.602;2023-02-15T14:32:47;10.80;86.80
35593;DHT22;64447;52.140;5.602;2023-02-15T14:35:20;11.00;86.40
35593;DHT22;64447;52.140;5.602;2023-02-15T14:37:54;10.80;85.90
35593;DHT22;64447;52.140;5.602;2023-02-15T14:43:55;10.90;85.70
35593;DHT22;64447;52.140;5.602;2023-02-15T14:49:43;10.40;86.30
35593;DHT22;64447;52.140;5.602;2023-02-15T14:52:10;10.90;86.50
35593;DHT22;64447;52.140;5.602;2023-02-15T15:05:51;10.90;84.80
35593;DHT22;64447;52.140;5.602;2023-02-15T15:08:37;11.20;84.90
35593;DHT22;64447;52.140;5.602;2023-02-15T15:13:58;11.10;84.60
35593;DHT22;64447;52.140;5.602;2023-02-15T15:22:19;11.00;85.00
35593;DHT22;64447;52.140;5.602;2023-02-15T15:24:45;11.00;85.00
35593;DHT22;64447;52.140;5.602;2023-02-15T15:39:21;11.00;83.80
35593;DHT22;64447;52.140;5.602;2023-02-15T15:42:04;11.00;83.80
35593;DHT22;64447;52.140;5.602;2023-02-15T15:45:14;11.00;85.20
35593;DHT22;64447;52.140;5.602;2023-02-15T15:48:20;11.10;83.90
35593;DHT22;64447;52.140;5.602;2023-02-15T15:50:52;11.10;83.80
35593;DHT22;64447;52.140;5.602;2023-02-15T15:53:27;11.10;84.00
35593;DHT22;64447;52.140;5.602;2023-02-15T15:56:01;11.00;84.10
35593;DHT22;64447;52.140;5.602;2023-02-15T15:58:29;11.20;84.20
35593;DHT22;64447;52.140;5.602;2023-02-15T16:03:29;11.30;83.90
35593;DHT22;64447;52.140;5.602;2023-02-15T16:05:55;11.30;84.00
35593;DHT22;64447;52.140;5.602;2023-02-15T16:08:34;11.30;83.80
35593;DHT22;64447;52.140;5.602;2023-02-15T16:11:12;11.20;83.60
35593;DHT22;64447;52.140;5.602;2023-02-15T16:13:40;11.20;83.80
35593;DHT22;64447;52.140;5.602;2023-02-15T16:16:06;11.20;83.90
35593;DHT22;64447;52.140;5.602;2023-02-15T16:18:33;11.30;83.90
35593;DHT22;64447;52.140;5.602;2023-02-15T16:21:04;11.20;83.90
35593;DHT22;64447;52.140;5.602;2023-02-15T16:28:58;11.20;84.10
35593;DHT22;64447;52.140;5.602;2023-02-15T16:31:23;11.20;84.30
35593;DHT22;64447;52.140;5.602;2023-02-15T16:33:52;11.10;84.30
35593;DHT22;64447;52.140;5.602;2023-02-15T16:36:24;11.10;84.30
35593;DHT22;64447;52.140;5.602;2023-02-15T16:41:38;11.00;84.50
35593;DHT22;64447;52.140;5.602;2023-02-15T16:44:07;11.00;84.50
35593;DHT22;64447;52.140;5.602;2023-02-15T16:46:46;11.00;84.60
35593;DHT22;64447;52.140;5.602;2023-02-15T16:49:44;11.10;84.70
35593;DHT22;64447;52.140;5.602;2023-02-15T16:52:24;10.90;84.60
35593;DHT22;64447;52.140;5.602;2023-02-15T16:55:03;10.90;84.80
35593;DHT22;64447;52.140;5.602;2023-02-15T16:57:35;10.90;84.90
35593;DHT22;64447;52.140;5.602;2023-02-15T17:00:06;10.80;85.70
35593;DHT22;64447;52.140;5.602;2023-02-15T17:05:50;10.70;84.90
35593;DHT22;64447;52.140;5.602;2023-02-15T17:08:26;10.60;85.50
35593;DHT22;64447;52.140;5.602;2023-02-15T17:16:53;10.50;85.20
35593;DHT22;64447;52.140;5.602;2023-02-15T17:22:59;10.50;85.40
35593;DHT22;64447;52.140;5.602;2023-02-15T17:25:40;10.40;85.40
35593;DHT22;64447;52.140;5.602;2023-02-15T17:28:20;11.10;86.10
35593;DHT22;64447;52.140;5.602;2023-02-15T17:30:46;10.40;85.70
35593;DHT22;64447;52.140;5.602;2023-02-15T17:36:20;10.30;85.80
35593;DHT22;64447;52.140;5.602;2023-02-15T17:41:22;10.30;85.90
35593;DHT22;64447;52.140;5.602;2023-02-15T17:43:48;10.20;85.80
35593;DHT22;64447;52.140;5.602;2023-02-15T17:46:13;10.20;85.80
35593;DHT22;64447;52.140;5.602;2023-02-15T17:48:41;10.20;85.90
35593;DHT22;64447;52.140;5.602;2023-02-15T17:51:12;10.10;86.10
35593;DHT22;64447;52.140;5.602;2023-02-15T17:53:38;10.10;86.00
35593;DHT22;64447;52.140;5.602;2023-02-15T17:56:04;10.10;86.10
35593;DHT22;64447;52.140;5.602;2023-02-15T17:58:34;10.10;86.30
35593;DHT22;64447;52.140;5.602;2023-02-15T18:01:03;10.00;86.10
35593;DHT22;64447;52.140;5.602;2023-02-15T18:03:50;10.10;86.10
35593;DHT22;64447;52.140;5.602;2023-02-15T18:06:37;10.10;85.90
35593;DHT22;64447;52.140;5.602;2023-02-15T18:09:22;10.10;85.90
35593;DHT22;64447;52.140;5.602;2023-02-15T18:12:24;10.00;85.60
35593;DHT22;64447;52.140;5.602;2023-02-15T18:14:51;10.00;85.70
35593;DHT22;64447;52.140;5.602;2023-02-15T18:17:26;10.00;85.80
35593;DHT22;64447;52.140;5.602;2023-02-15T18:20:32;10.20;85.80
35593;DHT22;64447;52.140;5.602;2023-02-15T18:22:59;10.00;85.90
35593;DHT22;64447;52.140;5.602;2023-02-15T18:25:26;9.90;86.00
35593;DHT22;64447;52.140;5.602;2023-02-15T18:27:52;9.90;85.90
35593;DHT22;64447;52.140;5.602;2023-02-15T18:30:19;9.90;85.90
35593;DHT22;64447;52.140;5.602;2023-02-15T18:36:13;9.80;85.70
35593;DHT22;64447;52.140;5.602;2023-02-15T18:38:41;9.80;85.80
35593;DHT22;64447;52.140;5.602;2023-02-15T18:41:08;9.70;86.10
35593;DHT22;64447;52.140;5.602;2023-02-15T18:43:34;9.70;86.20
35593;DHT22;64447;52.140;5.602;2023-02-15T18:46:00;9.60;87.10
35593;DHT22;64447;52.140;5.602;2023-02-15T18:51:47;9.60;86.70
35593;DHT22;64447;52.140;5.602;2023-02-15T18:54:19;9.60;86.60
35593;DHT22;64447;52.140;5.602;2023-02-15T18:56:52;9.50;86.60
35593;DHT22;64447;52.140;5.602;2023-02-15T18:59:18;9.50;86.70
35593;DHT22;64447;52.140;5.602;2023-02-15T19:01:43;9.40;86.50
35593;DHT22;64447;52.140;5.602;2023-02-15T19:07:44;9.40;87.20
35593;DHT22;64447;52.140;5.602;2023-02-15T19:10:18;9.40;87.70
35593;DHT22;64447;52.140;5.602;2023-02-15T19:12:45;9.20;87.80
35593;DHT22;64447;52.140;5.602;2023-02-15T19:15:22;9.20;88.00
35593;DHT22;64447;52.140;5.602;2023-02-15T19:17:48;9.10;89.00
35593;DHT22;64447;52.140;5.602;2023-02-15T19:23:36;9.10;88.90
35593;DHT22;64447;52.140;5.602;2023-02-15T19:26:01;9.10;89.40
35593;DHT22;64447;52.140;5.602;2023-02-15T19:28:32;9.10;89.40
35593;DHT22;64447;52.140;5.602;2023-02-15T19:30:58;9.20;89.50
35593;DHT22;64447;52.140;5.602;2023-02-15T19:33:24;9.10;90.10
35593;DHT22;64447;52.140;5.602;2023-02-15T19:35:52;9.10;90.00
35593;DHT22;64447;52.140;5.602;2023-02-15T19:38:28;9.20;90.00
35593;DHT22;64447;52.140;5.602;2023-02-15T19:40:59;9.80;90.30
35593;DHT22;64447;52.140;5.602;2023-02-15T19:43:26;9.10;90.00
35593;DHT22;64447;52.140;5.602;2023-02-15T19:45:52;9.10;89.90
35593;DHT22;64447;52.140;5.602;2023-02-15T19:48:18;9.20;89.90
35593;DHT22;64447;52.140;5.602;2023-02-15T19:50:47;9.20;89.80
35593;DHT22;64447;52.140;5.602;2023-02-15T19:53:24;9.20;89.50
35593;DHT22;64447;52.140;5.602;2023-02-15T19:55:51;9.30;89.50
35593;DHT22;64447;52.140;5.602;2023-02-15T19:58:17;9.20;89.40
35593;DHT22;64447;52.140;5.602;2023-02-15T20:00:44;9.20;89.30
35593;DHT22;64447;52.140;5.602;2023-02-15T20:03:10;9.20;89.40
35593;DHT22;64447;52.140;5.602;2023-02-15T20:08:58;9.00;89.60
35593;DHT22;64447;52.140;5.602;2023-02-15T20:11:24;9.10;89.50
35593;DHT22;64447;52.140;5.602;2023-02-15T20:13:49;8.70;89.00
35593;DHT22;64447;52.140;5.602;2023-02-15T20:16:15;9.00;89.20
35593;DHT22;64447;52.140;5.602;2023-02-15T20:18:40;9.30;89.60
35593;DHT22;64447;52.140;5.602;2023-02-15T20:21:14;8.90;89.60
35593;DHT22;64447;52.140;5.602;2023-02-15T20:23:40;9.10;89.30
35593;DHT22;64447;52.140;5.602;2023-02-15T20:26:16;9.10;89.00
35593;DHT22;64447;52.140;5.602;2023-02-15T20:28:43;8.60;88.90
35593;DHT22;64447;52.140;5.602;2023-02-15T20:31:14;8.80;88.70
35593;DHT22;64447;52.140;5.602;2023-02-15T20:33:40;9.70;89.70
35593;DHT22;64447;52.140;5.602;2023-02-15T20:36:13;9.10;88.80
35593;DHT22;64447;52.140;5.602;2023-02-15T20:38:39;9.10;88.80
35593;DHT22;64447;52.140;5.602;2023-02-15T20:41:07;9.20;89.10
35593;DHT22;64447;52.140;5.602;2023-02-15T20:43:53;9.10;88.90
35593;DHT22;64447;52.140;5.602;2023-02-15T20:46:19;9.00;88.90
35593;DHT22;64447;52.140;5.602;2023-02-15T20:48:45;9.30;89.00
35593;DHT22;64447;52.140;5.602;2023-02-15T20:51:16;8.90;89.00